createdAt,value
2023-05-05T00:02:08.933Z,1.95
2023-05-05T00:04:35.608Z,1.88
2023-05-05T00:07:02.346Z,1.85
2023-05-05T00:09:48.121Z,1.73
2023-05-05T00:12:14.761Z,1.83
2023-05-05T00:14:41.428Z,1.95
2023-05-05T00:17:08.111Z,1.63
2023-05-05T00:22:22.582Z,1.92
2023-05-05T00:24:49.213Z,1.73
2023-05-05T00:27:15.894Z,1.60
2023-05-05T00:30:01.695Z,1.83
2023-05-05T00:32:28.329Z,1.55
2023-05-05T00:34:54.963Z,1.55
2023-05-05T00:37:21.576Z,2.00
2023-05-05T00:39:50.775Z,1.70
2023-05-05T00:42:17.418Z,1.50
2023-05-05T00:44:44.904Z,1.80
2023-05-05T00:47:11.615Z,1.50
2023-05-05T00:49:57.314Z,1.58
2023-05-05T00:52:25.076Z,1.80
2023-05-05T00:54:51.668Z,1.85
2023-05-05T00:57:18.328Z,1.75
2023-05-05T00:59:46.237Z,1.40
2023-05-05T01:02:12.990Z,1.80
2023-05-05T01:04:40.925Z,1.65
2023-05-05T01:07:07.488Z,2.03
2023-05-05T01:09:34.293Z,1.80
2023-05-05T01:12:00.919Z,1.60
2023-05-05T01:14:27.569Z,1.92
2023-05-05T01:16:54.166Z,2.58
2023-05-05T01:22:25.128Z,1.70
2023-05-05T01:24:52.036Z,1.85
2023-05-05T01:27:19.761Z,1.80
2023-05-05T01:30:05.625Z,1.88
2023-05-05T01:32:32.561Z,2.15
2023-05-05T01:34:59.813Z,1.75
2023-05-05T01:37:26.755Z,1.77
2023-05-05T01:39:53.340Z,1.80
2023-05-05T01:42:19.974Z,1.88
2023-05-05T01:44:46.647Z,1.70
2023-05-05T01:47:13.373Z,1.92
2023-05-05T01:49:41.226Z,2.08
2023-05-05T01:52:08.192Z,1.70
2023-05-05T01:54:34.819Z,1.92
2023-05-05T01:57:02.042Z,2.08
2023-05-05T01:59:28.895Z,1.90
2023-05-05T02:01:55.568Z,2.00
2023-05-05T02:04:25.681Z,1.83
2023-05-05T02:06:53.085Z,1.95
2023-05-05T02:09:23.022Z,2.47
2023-05-05T02:11:49.927Z,2.15
2023-05-05T02:14:16.573Z,1.92
2023-05-05T02:16:43.168Z,1.75
2023-05-05T02:19:12.157Z,2.13
2023-05-05T02:21:38.847Z,2.15
2023-05-05T02:24:06.177Z,2.08
2023-05-05T02:26:32.769Z,1.90
2023-05-05T02:29:02.028Z,1.80
2023-05-05T02:31:28.719Z,2.00
2023-05-05T02:33:55.939Z,1.80
2023-05-05T02:36:22.878Z,2.35
2023-05-05T02:38:55.842Z,2.15
2023-05-05T02:41:24.737Z,1.70
2023-05-05T02:43:51.544Z,2.03
2023-05-05T02:46:19.353Z,2.13
2023-05-05T02:49:07.779Z,1.65
2023-05-05T02:51:35.447Z,1.75
2023-05-05T02:56:34.257Z,2.17
2023-05-05T02:59:20.060Z,2.25
2023-05-05T03:01:51.042Z,2.20
2023-05-05T03:04:19.464Z,2.10
2023-05-05T03:06:52.194Z,2.53
2023-05-05T03:09:43.039Z,2.33
2023-05-05T03:12:09.695Z,2.40
2023-05-05T03:14:46.680Z,2.80
2023-05-05T03:17:15.899Z,2.75
2023-05-05T03:19:43.754Z,2.40
2023-05-05T03:22:11.384Z,2.80
2023-05-05T03:24:42.629Z,2.72
2023-05-05T03:27:10.895Z,2.65
2023-05-05T03:29:41.478Z,2.50
2023-05-05T03:32:12.332Z,3.42
2023-05-05T03:34:40.491Z,2.75
2023-05-05T03:37:07.227Z,2.90
2023-05-05T03:39:54.056Z,3.10
2023-05-05T03:42:21.802Z,2.67
2023-05-05T03:44:48.456Z,2.92
2023-05-05T03:47:15.264Z,3.08
2023-05-05T03:49:42.437Z,3.53
2023-05-05T03:52:09.116Z,3.03
2023-05-05T03:54:36.234Z,3.10
2023-05-05T03:57:02.872Z,3.28
2023-05-05T03:59:30.035Z,3.53
2023-05-05T04:01:56.894Z,3.75
2023-05-05T04:04:23.730Z,3.53
2023-05-05T04:06:51.619Z,3.60
2023-05-05T04:09:19.583Z,4.03
2023-05-05T04:11:46.160Z,3.90
2023-05-05T04:14:12.895Z,3.40
2023-05-05T04:16:39.578Z,3.92
2023-05-05T04:19:07.249Z,3.55
2023-05-05T04:21:34.556Z,3.70
2023-05-05T04:24:01.294Z,4.50
2023-05-05T04:26:28.075Z,3.90
2023-05-05T04:28:56.083Z,3.90
2023-05-05T04:31:23.179Z,4.22
2023-05-05T04:33:49.878Z,3.83
2023-05-05T04:36:16.665Z,3.80
2023-05-05T04:38:46.684Z,4.32
2023-05-05T04:41:13.505Z,4.70
2023-05-05T04:43:42.317Z,4.03
2023-05-05T04:46:09.012Z,4.00
2023-05-05T04:48:41.066Z,4.25
2023-05-05T04:51:07.807Z,4.15
2023-05-05T04:53:36.027Z,4.35
2023-05-05T04:56:02.702Z,4.07
2023-05-05T04:58:31.535Z,3.55
2023-05-05T05:00:58.514Z,4.10
2023-05-05T05:03:25.205Z,4.00
2023-05-05T05:05:51.915Z,4.55
2023-05-05T05:08:18.897Z,4.35
2023-05-05T05:10:45.564Z,4.25
2023-05-05T05:13:13.081Z,4.30
2023-05-05T05:15:40.659Z,4.30
2023-05-05T05:18:08.420Z,4.32
2023-05-05T05:20:35.350Z,3.95
2023-05-05T05:23:02.400Z,4.10
2023-05-05T05:25:30.792Z,4.72
2023-05-05T05:28:22.499Z,3.50
2023-05-05T05:30:54.210Z,3.30
2023-05-05T05:33:21.657Z,4.32
2023-05-05T05:35:49.076Z,3.65
2023-05-05T05:38:40.335Z,3.60
2023-05-05T05:41:07.873Z,3.10
2023-05-05T05:43:36.438Z,3.45
2023-05-05T05:46:05.035Z,4.78
2023-05-05T05:48:34.975Z,3.40
2023-05-05T05:51:02.550Z,3.05
2023-05-05T05:53:29.672Z,3.75
2023-05-05T05:55:56.922Z,3.30
2023-05-05T05:58:26.348Z,3.80
2023-05-05T06:00:53.149Z,3.38
2023-05-05T06:03:23.320Z,3.45
2023-05-05T06:05:50.720Z,3.35
2023-05-05T06:08:22.542Z,3.50
2023-05-05T06:10:52.920Z,2.83
2023-05-05T06:13:21.454Z,3.17
2023-05-05T06:15:51.025Z,3.78
2023-05-05T06:18:20.479Z,3.60
2023-05-05T06:20:47.237Z,3.47
2023-05-05T06:23:17.800Z,3.10
2023-05-05T06:25:50.773Z,2.95
2023-05-05T06:28:36.756Z,3.40
2023-05-05T06:31:03.461Z,4.60
2023-05-05T06:33:30.154Z,3.92
2023-05-05T06:35:56.907Z,3.88
2023-05-05T06:41:27.586Z,3.15
2023-05-05T06:43:54.315Z,3.30
2023-05-05T06:46:30.291Z,3.58
2023-05-05T06:49:11.321Z,3.22
2023-05-05T06:51:40.502Z,3.97
2023-05-05T06:54:08.096Z,3.55
2023-05-05T06:56:34.764Z,3.15
2023-05-05T06:59:01.538Z,3.13
2023-05-05T07:01:28.172Z,3.20
2023-05-05T07:03:54.849Z,3.40
2023-05-05T07:06:21.619Z,3.28
2023-05-05T07:08:49.620Z,3.10
2023-05-05T07:11:16.249Z,3.00
2023-05-05T07:13:42.938Z,3.40
2023-05-05T07:16:09.556Z,3.10
2023-05-05T07:18:39.352Z,3.20
2023-05-05T07:21:06.685Z,2.83
2023-05-05T07:23:33.394Z,2.90
2023-05-05T07:26:00.157Z,3.30
2023-05-05T07:28:28.894Z,3.47
2023-05-05T07:30:55.587Z,3.03
2023-05-05T07:33:22.272Z,3.13
2023-05-05T07:35:48.901Z,2.80
2023-05-05T07:38:34.985Z,2.90
2023-05-05T07:41:01.687Z,2.78
2023-05-05T07:43:28.482Z,2.65
2023-05-05T07:45:55.161Z,3.00
2023-05-05T07:48:23.091Z,2.65
2023-05-05T07:50:49.705Z,2.58
2023-05-05T07:53:16.295Z,2.72
2023-05-05T07:55:42.929Z,2.28
2023-05-05T07:58:11.080Z,2.60
2023-05-05T08:00:37.780Z,2.83
2023-05-05T08:03:04.493Z,2.75
2023-05-05T08:05:31.356Z,2.72
2023-05-05T08:08:00.218Z,2.53
2023-05-05T08:10:26.893Z,2.70
2023-05-05T08:12:54.892Z,2.78
2023-05-05T08:15:21.686Z,2.47
2023-05-05T08:17:49.604Z,2.35
2023-05-05T08:20:16.364Z,2.30
2023-05-05T08:22:43.114Z,2.33
2023-05-05T08:25:11.085Z,2.05
2023-05-05T08:27:39.164Z,2.58
2023-05-05T08:30:06.167Z,1.80
2023-05-05T08:32:32.968Z,1.92
2023-05-05T08:34:59.651Z,1.85
2023-05-05T08:37:26.440Z,1.60
2023-05-05T08:39:53.005Z,2.65
2023-05-05T08:42:32.783Z,2.13
2023-05-05T08:45:03.476Z,1.60
2023-05-05T08:47:32.256Z,1.80
2023-05-05T08:49:58.996Z,1.50
2023-05-05T08:52:25.770Z,1.60
2023-05-05T08:54:52.434Z,1.90
2023-05-05T08:57:19.064Z,2.05
2023-05-05T08:59:47.997Z,1.50
2023-05-05T09:02:14.608Z,2.22
2023-05-05T09:04:41.291Z,2.20
2023-05-05T09:07:07.861Z,2.20
2023-05-05T09:09:53.426Z,2.13
2023-05-05T09:12:20.046Z,2.03
2023-05-05T09:14:47.105Z,1.90
2023-05-05T09:17:13.727Z,1.80
2023-05-05T09:19:41.540Z,1.70
2023-05-05T09:22:08.589Z,2.10
2023-05-05T09:24:35.221Z,1.90
2023-05-05T09:27:02.197Z,1.70
2023-05-05T09:29:30.174Z,1.58
2023-05-05T09:31:56.822Z,1.40
2023-05-05T09:34:23.459Z,1.65
2023-05-05T09:36:50.098Z,1.83
2023-05-05T09:39:16.821Z,1.95
2023-05-05T09:41:47.022Z,1.88
2023-05-05T09:44:16.020Z,1.55
2023-05-05T09:46:42.690Z,1.65
2023-05-05T09:49:14.291Z,1.88
2023-05-05T09:51:47.220Z,1.60
2023-05-05T09:54:13.969Z,1.80
2023-05-05T09:56:40.840Z,1.90
2023-05-05T09:59:09.789Z,1.67
2023-05-05T10:01:40.806Z,1.70
2023-05-05T10:04:07.834Z,1.85
2023-05-05T10:06:34.464Z,1.90
2023-05-05T10:09:02.345Z,1.70
2023-05-05T10:11:29.125Z,1.88
2023-05-05T10:13:55.912Z,1.70
2023-05-05T10:16:23.952Z,1.35
2023-05-05T10:18:51.126Z,2.08
2023-05-05T10:21:17.761Z,1.60
2023-05-05T10:23:44.562Z,2.10
2023-05-05T10:26:11.360Z,2.13
2023-05-05T10:28:39.216Z,2.10
2023-05-05T10:31:13.182Z,1.88
2023-05-05T10:33:44.989Z,1.60
2023-05-05T10:36:11.820Z,1.90
2023-05-05T10:38:57.596Z,2.20
2023-05-05T10:41:24.244Z,1.50
2023-05-05T10:43:51.322Z,1.60
2023-05-05T10:46:18.043Z,1.70
2023-05-05T10:48:47.004Z,1.58
2023-05-05T10:51:18.857Z,1.33
2023-05-05T10:53:51.149Z,1.50
2023-05-05T10:56:17.806Z,1.45
2023-05-05T11:01:50.716Z,1.55
2023-05-05T11:04:17.750Z,1.48
2023-05-05T11:06:44.383Z,1.52
2023-05-05T11:09:12.309Z,1.75
2023-05-05T11:11:38.932Z,1.25
2023-05-05T11:14:05.653Z,1.30
2023-05-05T11:16:32.337Z,2.08
2023-05-05T11:22:47.223Z,2.33
2023-05-05T11:25:14.054Z,1.70
2023-05-05T11:27:41.070Z,1.70
2023-05-05T11:30:08.117Z,2.13
2023-05-05T11:32:35.020Z,1.90
2023-05-05T11:35:01.765Z,1.88
2023-05-05T11:37:28.373Z,1.83
2023-05-05T11:39:54.980Z,1.40
2023-05-05T11:42:21.525Z,1.50
2023-05-05T11:44:48.154Z,1.67
2023-05-05T11:47:14.764Z,1.40
2023-05-05T11:49:42.456Z,1.50
2023-05-05T11:52:09.143Z,2.65
2023-05-05T11:54:35.799Z,2.20
2023-05-05T11:57:05.128Z,2.13
2023-05-05T11:59:31.908Z,1.55
2023-05-05T12:01:58.502Z,1.50
2023-05-05T12:04:25.122Z,2.20
2023-05-05T12:06:51.859Z,2.10
2023-05-05T12:09:18.502Z,1.80
2023-05-05T12:11:45.146Z,1.95
2023-05-05T12:14:11.825Z,1.80
2023-05-05T12:16:38.658Z,2.05
2023-05-05T12:19:05.860Z,2.22
2023-05-05T12:21:32.496Z,2.15
2023-05-05T12:23:59.228Z,2.35
2023-05-05T12:26:29.085Z,2.00
2023-05-05T12:28:55.989Z,1.80
2023-05-05T12:31:22.668Z,1.85
2023-05-05T12:33:49.391Z,2.00
2023-05-05T12:36:16.402Z,1.80
2023-05-05T12:38:43.114Z,2.03
2023-05-05T12:41:09.797Z,2.05
2023-05-05T12:43:36.485Z,2.10
2023-05-05T12:46:03.427Z,2.00
2023-05-05T12:48:30.672Z,1.80
2023-05-05T12:50:57.256Z,1.90
2023-05-05T12:53:23.931Z,1.90
2023-05-05T12:55:51.131Z,2.10
2023-05-05T12:58:17.768Z,2.20
2023-05-05T13:00:44.370Z,1.95
2023-05-05T13:03:11.397Z,2.20
2023-05-05T13:05:38.054Z,1.88
2023-05-05T13:08:04.707Z,1.70
2023-05-05T13:10:31.539Z,2.10
2023-05-05T13:12:58.496Z,2.25
2023-05-05T13:15:25.148Z,1.90
2023-05-05T13:17:51.900Z,2.40
2023-05-05T13:20:18.602Z,2.30
2023-05-05T13:22:45.221Z,1.83
2023-05-05T13:25:12.043Z,2.38
2023-05-05T13:27:38.844Z,1.90
2023-05-05T13:30:06.092Z,1.77
2023-05-05T13:32:32.753Z,2.72
2023-05-05T13:34:59.349Z,2.00
2023-05-05T13:37:25.969Z,2.20
2023-05-05T13:39:52.635Z,2.15
2023-05-05T13:42:19.250Z,2.40
2023-05-05T13:44:45.911Z,2.28
2023-05-05T13:47:13.968Z,2.30
2023-05-05T13:49:40.790Z,2.33
2023-05-05T13:52:07.991Z,2.08
2023-05-05T13:54:34.607Z,2.40
2023-05-05T13:57:01.226Z,2.30
2023-05-05T13:59:28.853Z,2.22
2023-05-05T14:01:55.968Z,2.15
2023-05-05T14:04:22.667Z,2.40
2023-05-05T14:06:49.471Z,1.80
2023-05-05T14:09:16.289Z,1.73
2023-05-05T14:11:42.931Z,2.72
2023-05-05T14:14:09.593Z,2.10
2023-05-05T14:16:36.367Z,1.92
2023-05-05T14:19:03.090Z,1.90
2023-05-05T14:21:29.767Z,2.40
2023-05-05T14:23:56.493Z,2.25
2023-05-05T14:26:23.270Z,2.45
2023-05-05T14:28:50.127Z,2.45
2023-05-05T14:31:17.614Z,2.55
2023-05-05T14:33:44.300Z,2.08
2023-05-05T14:36:11.094Z,2.20
2023-05-05T14:38:37.921Z,2.17
2023-05-05T14:41:04.658Z,1.50
2023-05-05T14:43:31.362Z,1.52
2023-05-05T14:46:00.201Z,2.33
2023-05-05T14:48:26.974Z,1.60
2023-05-05T14:50:53.590Z,2.28
2023-05-05T14:53:20.245Z,1.70
2023-05-05T14:55:46.869Z,1.80
2023-05-05T14:58:13.523Z,1.60
2023-05-05T15:00:40.291Z,2.00
2023-05-05T15:03:10.006Z,2.40
2023-05-05T15:05:39.114Z,2.20
2023-05-05T15:08:06.548Z,2.25
2023-05-05T15:10:33.165Z,1.95
2023-05-05T15:13:00.058Z,2.53
2023-05-05T15:15:27.085Z,2.20
2023-05-05T15:17:53.793Z,2.30
2023-05-05T15:20:20.456Z,2.30
2023-05-05T15:22:48.439Z,2.10
2023-05-05T15:25:16.351Z,2.10
2023-05-05T15:27:43.022Z,2.45
2023-05-05T15:30:09.941Z,2.45
2023-05-05T15:32:36.818Z,2.45
2023-05-05T15:35:03.780Z,1.60
2023-05-05T15:37:30.608Z,2.50
2023-05-05T15:39:57.304Z,2.60
2023-05-05T15:42:23.954Z,2.50
2023-05-05T15:44:50.632Z,2.40
2023-05-05T15:47:17.257Z,2.47
2023-05-05T15:49:43.958Z,2.60
2023-05-05T15:52:11.489Z,1.92
2023-05-05T15:54:38.251Z,1.73
2023-05-05T15:57:04.867Z,1.98
2023-05-05T15:59:31.645Z,2.70
2023-05-05T16:01:58.233Z,1.80
2023-05-05T16:04:24.938Z,1.48
2023-05-05T16:06:51.541Z,2.03
2023-05-05T16:09:18.145Z,1.65
2023-05-05T16:11:44.846Z,1.60
2023-05-05T16:14:11.458Z,1.52
2023-05-05T16:16:38.083Z,1.50
2023-05-05T16:19:04.817Z,1.60
2023-05-05T16:21:31.569Z,1.92
2023-05-05T16:23:58.366Z,1.80
2023-05-05T16:26:24.982Z,1.80
2023-05-05T16:28:52.245Z,1.95
2023-05-05T16:31:19.037Z,1.80
2023-05-05T16:33:45.757Z,1.67
2023-05-05T16:36:12.472Z,1.63
2023-05-05T16:38:39.195Z,1.85
2023-05-05T16:41:07.047Z,1.90
2023-05-05T16:43:33.834Z,1.90
2023-05-05T16:46:00.758Z,1.67
2023-05-05T16:48:27.424Z,2.47
2023-05-05T16:50:54.107Z,1.75
2023-05-05T16:53:21.169Z,1.70
2023-05-05T16:55:47.935Z,1.85
2023-05-05T16:58:14.555Z,1.90
2023-05-05T17:00:41.178Z,2.08
2023-05-05T17:03:08.063Z,2.10
2023-05-05T17:05:34.679Z,1.90
2023-05-05T17:08:03.003Z,1.55
2023-05-05T17:10:29.636Z,1.58
2023-05-05T17:12:56.273Z,1.70
2023-05-05T17:15:22.902Z,1.88
2023-05-05T17:17:49.618Z,1.90
2023-05-05T17:20:16.612Z,2.17
2023-05-05T17:22:43.330Z,1.90
2023-05-05T17:25:10.425Z,2.00
2023-05-05T17:27:38.467Z,4.13
2023-05-05T17:30:05.433Z,1.90
2023-05-05T17:35:37.291Z,1.83
2023-05-05T17:38:04.391Z,1.70
2023-05-05T17:40:31.114Z,2.08
2023-05-05T17:42:57.996Z,2.13
2023-05-05T17:45:24.779Z,1.70
2023-05-05T17:50:59.657Z,2.08
2023-05-05T17:59:18.887Z,3.60
2023-05-05T18:01:47.983Z,2.15
2023-05-05T18:04:17.479Z,2.20
2023-05-05T18:06:45.409Z,2.30
2023-05-05T18:09:12.115Z,2.42
2023-05-05T18:11:38.770Z,2.25
2023-05-05T18:14:05.466Z,2.60
2023-05-05T18:16:51.129Z,2.30
2023-05-05T18:19:17.810Z,2.45
2023-05-05T18:21:44.407Z,1.90
2023-05-05T18:24:19.490Z,2.30
2023-05-05T18:26:49.443Z,1.88
2023-05-05T18:29:16.129Z,1.95
2023-05-05T18:31:43.918Z,2.55
2023-05-05T18:34:10.624Z,2.05
2023-05-05T18:36:37.349Z,1.88
2023-05-05T18:39:03.946Z,2.13
2023-05-05T18:41:30.739Z,2.25
2023-05-05T18:43:57.357Z,2.40
2023-05-05T18:46:25.427Z,2.22
2023-05-05T18:48:52.050Z,2.08
2023-05-05T18:51:18.662Z,2.05
2023-05-05T18:53:45.265Z,2.42
2023-05-05T18:56:12.107Z,2.28
2023-05-05T18:58:38.958Z,2.13
2023-05-05T19:01:05.644Z,2.25
2023-05-05T19:03:32.345Z,2.70
2023-05-05T19:05:59.278Z,2.15
2023-05-05T19:08:25.866Z,2.10
2023-05-05T19:10:52.529Z,2.20
2023-05-05T19:13:19.244Z,2.15
2023-05-05T19:15:46.070Z,2.22
2023-05-05T19:18:12.852Z,2.35
2023-05-05T19:20:42.830Z,2.33
2023-05-05T19:23:09.537Z,1.95
2023-05-05T19:25:37.593Z,2.30
2023-05-05T19:28:04.333Z,2.38
2023-05-05T19:30:31.351Z,3.10
2023-05-05T19:32:58.060Z,3.33
2023-05-05T19:35:26.125Z,2.20
2023-05-05T19:37:52.723Z,2.20
2023-05-05T19:40:19.366Z,1.95
2023-05-05T19:42:46.056Z,2.38
2023-05-05T19:45:12.716Z,1.95
2023-05-05T19:47:39.406Z,2.10
2023-05-05T19:50:06.312Z,2.60
2023-05-05T19:52:33.019Z,1.98
2023-05-05T19:54:59.612Z,4.00
2023-05-05T19:57:26.345Z,2.45
2023-05-05T19:59:53.000Z,2.20
2023-05-05T20:02:21.958Z,1.77
2023-05-05T20:04:49.608Z,1.77
2023-05-05T20:07:17.901Z,3.47
2023-05-05T20:09:45.107Z,2.10
2023-05-05T20:12:12.252Z,2.25
2023-05-05T20:14:38.908Z,2.40
2023-05-05T20:17:06.688Z,2.38
2023-05-05T20:19:33.323Z,2.47
2023-05-05T20:21:59.959Z,2.38
2023-05-05T20:24:28.676Z,2.35
2023-05-05T20:26:57.641Z,2.90
2023-05-05T20:29:24.229Z,2.78
2023-05-05T20:31:50.925Z,2.10
2023-05-05T20:34:17.591Z,2.80
2023-05-05T20:36:46.093Z,2.10
2023-05-05T20:39:12.718Z,2.35
2023-05-05T20:41:40.480Z,2.50
2023-05-05T20:44:09.214Z,2.28
2023-05-05T20:46:36.017Z,2.15
2023-05-05T20:49:05.349Z,2.63
2023-05-05T20:51:34.241Z,2.20
2023-05-05T20:54:01.215Z,2.20
2023-05-05T20:56:29.152Z,2.00
2023-05-05T20:58:56.781Z,2.28
2023-05-05T21:01:23.573Z,2.08
2023-05-05T21:03:50.475Z,1.90
2023-05-05T21:06:36.057Z,2.25
2023-05-05T21:09:02.910Z,2.03
2023-05-05T21:11:29.641Z,2.33
2023-05-05T21:13:56.386Z,2.85
2023-05-05T21:16:23.252Z,2.20
2023-05-05T21:18:49.977Z,2.10
2023-05-05T21:21:16.582Z,2.30
2023-05-05T21:23:43.353Z,2.33
2023-05-05T21:26:10.412Z,2.67
2023-05-05T21:28:37.093Z,2.30
2023-05-05T21:31:21.033Z,2.17
2023-05-05T21:33:48.821Z,2.42
2023-05-05T21:36:17.583Z,2.03
2023-05-05T21:38:44.332Z,2.20
2023-05-05T21:41:11.264Z,2.53
2023-05-05T21:43:37.916Z,2.67
2023-05-05T21:46:05.008Z,2.90
2023-05-05T21:48:31.779Z,2.33
2023-05-05T21:50:58.364Z,2.10
2023-05-05T21:53:25.049Z,1.95
2023-05-05T21:55:52.863Z,2.20
2023-05-05T21:58:19.597Z,2.25
2023-05-05T22:00:46.379Z,2.38
2023-05-05T22:03:13.055Z,2.53
2023-05-05T22:05:42.073Z,2.33
2023-05-05T22:08:08.645Z,2.10
2023-05-05T22:10:35.372Z,2.60
2023-05-05T22:13:02.081Z,2.25
2023-05-05T22:15:35.684Z,2.05
2023-05-05T22:18:09.720Z,2.25
2023-05-05T22:20:36.897Z,2.03
2023-05-05T22:23:03.571Z,2.40
2023-05-05T22:25:30.314Z,2.40
2023-05-05T22:27:56.954Z,2.03
2023-05-05T22:30:23.555Z,2.13
2023-05-05T22:32:50.228Z,2.50
2023-05-05T22:35:16.834Z,2.22
2023-05-05T22:37:43.522Z,1.90
2023-05-05T22:40:10.137Z,2.03
2023-05-05T22:42:37.143Z,2.15
2023-05-05T22:45:03.850Z,2.00
2023-05-05T22:47:31.077Z,2.03
2023-05-05T22:49:58.334Z,2.15
2023-05-05T22:52:25.706Z,2.92
2023-05-05T22:54:52.356Z,2.13
2023-05-05T22:57:19.168Z,2.42
2023-05-05T22:59:45.802Z,2.47
2023-05-05T23:02:12.386Z,2.42
2023-05-05T23:04:39.075Z,2.25
2023-05-05T23:07:07.023Z,2.35
2023-05-05T23:09:33.613Z,2.88
2023-05-05T23:12:00.618Z,2.38
2023-05-05T23:14:27.254Z,2.45
2023-05-05T23:16:56.267Z,2.22
2023-05-05T23:19:24.099Z,2.05
2023-05-05T23:21:53.701Z,2.20
2023-05-05T23:24:20.633Z,2.40
2023-05-05T23:26:47.546Z,2.13
2023-05-05T23:29:14.274Z,3.05
2023-05-05T23:31:40.932Z,2.50
2023-05-05T23:34:07.651Z,2.83
2023-05-05T23:36:36.463Z,3.42
2023-05-05T23:39:03.179Z,2.10
2023-05-05T23:41:29.837Z,2.00
2023-05-05T23:43:56.444Z,2.72
2023-05-05T23:46:23.923Z,1.80
2023-05-05T23:48:50.708Z,1.75
2023-05-05T23:51:17.311Z,2.13
2023-05-05T23:53:43.924Z,3.35
2023-05-05T23:56:12.163Z,2.22
2023-05-05T23:58:38.896Z,1.92
